Time;durP1;ratioP1;P1;durP2;ratioP2;P2;SDS_P1;SDS_P2;PMS_P1;PMS_P2;Temp;Humidity;BMP_temperature;BMP_pressure;BME280_temperature;BME280_humidity;BME280_pressure;Samples;Min_cycle;Max_cycle;Signal;HPM_P1;HPM_P2
2023/06/29 00:00:08;;;;;;;0.82;0.63;;;13.00;99.90;;;;;;5049274;28;20204;-89
2023/06/29 00:02:41;;;;;;;2.90;0.70;;;13.10;99.90;;;;;;5052025;28;20662;-88
2023/06/29 00:05:18;;;;;;;1.50;0.68;;;13.20;99.90;;;;;;5033982;28;20312;-90
2023/06/29 00:07:50;;;;;;;2.28;0.55;;;13.50;99.90;;;;;;5044267;28;20660;-91
2023/06/29 00:10:25;;;;;;;0.80;0.50;;;13.50;99.90;;;;;;5027245;28;20203;-90
2023/06/29 00:12:57;;;;;;;0.85;0.60;;;13.60;99.90;;;;;;5044691;28;20255;-91
2023/06/29 00:15:28;;;;;;;2.45;0.88;;;13.60;99.90;;;;;;5034139;28;20205;-90
2023/06/29 00:18:03;;;;;;;1.45;0.57;;;13.60;99.90;;;;;;5051958;28;20216;-89
2023/06/29 00:20:39;;;;;;;0.43;0.43;;;13.60;99.90;;;;;;5042410;28;20215;-90
2023/06/29 00:23:10;;;;;;;0.93;0.60;;;13.60;99.90;;;;;;5056091;28;20226;-89
2023/06/29 00:25:44;;;;;;;1.13;0.60;;;13.70;99.90;;;;;;5056311;28;20221;-90
2023/06/29 00:28:15;;;;;;;0.60;0.60;;;13.70;99.90;;;;;;5056477;28;20544;-90
2023/06/29 00:30:47;;;;;;;0.98;0.60;;;13.80;99.90;;;;;;5041125;28;20210;-90
2023/06/29 00:33:19;;;;;;;1.60;0.60;;;13.80;99.90;;;;;;5073158;28;20200;-90
2023/06/29 00:35:55;;;;;;;2.03;0.70;;;13.80;99.90;;;;;;5082670;28;20206;-90
2023/06/29 00:38:28;;;;;;;1.08;0.40;;;13.80;99.90;;;;;;5080371;28;20192;-90
2023/06/29 00:41:00;;;;;;;0.50;0.50;;;13.90;99.90;;;;;;5044921;28;20284;-90
2023/06/29 00:43:32;;;;;;;0.50;0.50;;;14.10;99.90;;;;;;5056864;28;20200;-90
2023/06/29 00:46:07;;;;;;;0.77;0.52;;;14.00;99.90;;;;;;5038755;28;20220;-90
2023/06/29 00:48:41;;;;;;;1.27;0.47;;;14.00;99.90;;;;;;5059822;28;20191;-90
2023/06/29 00:51:18;;;;;;;0.80;0.55;;;13.90;99.90;;;;;;5075992;28;20558;-90
2023/06/29 00:53:50;;;;;;;0.95;0.50;;;14.00;99.90;;;;;;5075934;28;20258;-90
2023/06/29 00:56:25;;;;;;;0.60;0.50;;;14.00;99.90;;;;;;5055466;28;20208;-90
2023/06/29 00:58:57;;;;;;;0.85;0.40;;;14.20;99.90;;;;;;5054776;28;20192;-90
2023/06/29 01:01:28;;;;;;;0.65;0.50;;;14.20;99.90;;;;;;5056357;28;20204;-91
2023/06/29 01:04:00;;;;;;;0.75;0.52;;;14.20;99.90;;;;;;5060369;28;20196;-91
2023/06/29 01:06:40;;;;;;;0.77;0.40;;;14.20;99.90;;;;;;5075357;28;20219;-92
2023/06/29 01:09:15;;;;;;;0.50;0.50;;;14.30;99.90;;;;;;5075512;28;20241;-91
2023/06/29 01:11:47;;;;;;;1.00;0.47;;;14.30;99.90;;;;;;5061610;28;20292;-91
2023/06/29 01:14:20;;;;;;;1.10;0.60;;;14.40;99.90;;;;;;5036500;28;20204;-90
2023/06/29 01:16:55;;;;;;;2.22;1.05;;;14.50;99.90;;;;;;5018098;28;20203;-91
2023/06/29 01:19:30;;;;;;;1.27;0.90;;;14.50;99.90;;;;;;5035440;28;20228;-91
2023/06/29 01:22:11;;;;;;;1.35;0.90;;;14.50;99.90;;;;;;5050828;28;20227;-90
2023/06/29 01:24:47;;;;;;;0.52;0.52;;;14.60;99.90;;;;;;5059284;28;20196;-91
2023/06/29 01:27:20;;;;;;;1.00;0.75;;;14.70;99.90;;;;;;5036227;28;20221;-92
2023/06/29 01:29:55;;;;;;;1.75;0.70;;;14.80;99.90;;;;;;5049886;28;20188;-92
2023/06/29 01:32:34;;;;;;;1.45;0.60;;;14.80;99.90;;;;;;5055110;28;20253;-92
2023/06/29 01:35:08;;;;;;;1.60;0.50;;;14.90;99.90;;;;;;5063832;28;20205;-92
2023/06/29 01:37:44;;;;;;;0.65;0.50;;;15.00;99.90;;;;;;5076652;28;20200;-91
2023/06/29 01:40:27;;;;;;;0.82;0.50;;;15.10;99.90;;;;;;5064050;28;20200;-92
2023/06/29 01:42:59;;;;;;;0.57;0.50;;;15.10;99.90;;;;;;5055337;28;20207;-92
2023/06/29 01:45:33;;;;;;;1.48;0.68;;;15.10;99.90;;;;;;5036757;28;20211;-92
2023/06/29 01:48:08;;;;;;;1.75;1.15;;;15.20;99.90;;;;;;5055022;28;20204;-90
2023/06/29 01:50:41;;;;;;;0.82;0.60;;;15.30;99.90;;;;;;5057711;28;20199;-90
2023/06/29 01:53:15;;;;;;;2.47;1.50;;;15.20;98.90;;;;;;5070645;28;20223;-86
2023/06/29 01:55:48;;;;;;;2.67;0.95;;;15.30;98.40;;;;;;5098153;28;20192;-88
2023/06/29 01:58:19;;;;;;;1.50;0.70;;;15.20;97.10;;;;;;5061758;28;20207;-87
2023/06/29 02:00:51;;;;;;;0.63;0.50;;;15.20;97.20;;;;;;5057975;28;20231;-89
2023/06/29 02:03:23;;;;;;;6.95;2.70;;;15.30;96.40;;;;;;5056083;28;20228;-89
2023/06/29 02:05:54;;;;;;;0.70;0.57;;;15.30;96.70;;;;;;5052683;28;20245;-89
2023/06/29 02:08:25;;;;;;;0.63;0.50;;;15.40;95.90;;;;;;5075092;28;20271;-88
2023/06/29 02:10:59;;;;;;;0.73;0.63;;;15.40;94.20;;;;;;5075073;28;20207;-88
2023/06/29 02:13:30;;;;;;;1.38;0.93;;;15.20;94.80;;;;;;5075618;28;20712;-89
2023/06/29 02:16:02;;;;;;;0.57;0.57;;;15.40;95.60;;;;;;5043540;28;20199;-89
2023/06/29 02:18:35;;;;;;;1.17;0.70;;;15.60;94.10;;;;;;5036497;28;20200;-89
2023/06/29 02:21:08;;;;;;;0.95;0.70;;;15.70;92.80;;;;;;5038587;28;20216;-89
2023/06/29 02:23:41;;;;;;;1.08;0.80;;;15.70;93.20;;;;;;5063198;28;20671;-88
2023/06/29 02:26:17;;;;;;;1.40;0.70;;;15.70;93.80;;;;;;5074989;28;20224;-89
2023/06/29 02:28:51;;;;;;;1.98;1.00;;;15.70;93.50;;;;;;5074208;28;20674;-89
2023/06/29 02:31:22;;;;;;;1.60;1.48;;;15.80;93.90;;;;;;5075154;28;20191;-89
2023/06/29 02:33:54;;;;;;;0.50;0.50;;;15.80;93.20;;;;;;5057103;28;20200;-89
2023/06/29 02:36:26;;;;;;;1.20;1.10;;;15.80;92.40;;;;;;5066178;28;20232;-89
2023/06/29 02:39:00;;;;;;;2.50;0.55;;;15.90;92.40;;;;;;5047791;28;20211;-91
2023/06/29 02:41:34;;;;;;;5.15;1.52;;;15.90;91.60;;;;;;5075664;28;20663;-88
2023/06/29 02:44:05;;;;;;;1.40;0.70;;;15.90;91.70;;;;;;5075596;28;20200;-89
2023/06/29 02:46:36;;;;;;;0.57;0.57;;;16.00;90.50;;;;;;5057206;28;20227;-89
2023/06/29 02:49:07;;;;;;;1.27;0.60;;;16.10;90.30;;;;;;5064903;28;20271;-90
2023/06/29 02:51:40;;;;;;;0.68;0.68;;;16.00;91.30;;;;;;5054042;28;20229;-89
2023/06/29 02:54:11;;;;;;;2.03;1.60;;;16.10;90.80;;;;;;5059128;28;20200;-88
2023/06/29 02:56:45;;;;;;;0.77;0.60;;;16.20;90.70;;;;;;5047706;28;20226;-89
2023/06/29 02:59:17;;;;;;;0.47;0.47;;;16.20;87.50;;;;;;5033517;28;20205;-89
2023/06/29 03:01:49;;;;;;;0.40;0.40;;;16.20;86.90;;;;;;5034256;28;20702;-90
2023/06/29 03:04:30;;;;;;;1.33;0.80;;;16.20;86.30;;;;;;5050858;28;20201;-90
2023/06/29 03:07:01;;;;;;;1.33;0.80;;;16.20;87.10;;;;;;5057664;28;20232;-91
2023/06/29 03:09:37;;;;;;;1.00;0.65;;;16.20;90.50;;;;;;5034260;28;20211;-89
2023/06/29 03:12:13;;;;;;;0.77;0.70;;;16.20;86.90;;;;;;5059737;28;20591;-89
2023/06/29 03:14:46;;;;;;;1.65;0.70;;;16.30;87.40;;;;;;5059345;28;20200;-89
2023/06/29 03:17:18;;;;;;;0.60;0.50;;;16.40;85.40;;;;;;5053405;28;20207;-90
2023/06/29 03:19:49;;;;;;;1.73;0.70;;;16.20;83.00;;;;;;5059661;28;20747;-90
2023/06/29 03:22:20;;;;;;;2.17;0.70;;;16.10;83.20;;;;;;5057902;28;20568;-89
2023/06/29 03:24:52;;;;;;;1.25;0.93;;;16.10;85.00;;;;;;5053372;28;20205;-91
2023/06/29 03:27:28;;;;;;;0.55;0.50;;;16.20;85.40;;;;;;5053252;28;20224;-91
2023/06/29 03:30:00;;;;;;;0.75;0.73;;;16.30;82.80;;;;;;5070817;28;20666;-91
2023/06/29 03:32:34;;;;;;;0.35;0.35;;;16.30;82.20;;;;;;5074450;28;20206;-91
2023/06/29 03:35:07;;;;;;;1.45;0.70;;;16.40;81.60;;;;;;5073391;28;20207;-90
2023/06/29 03:37:39;;;;;;;1.73;1.02;;;16.40;81.60;;;;;;5065217;28;20695;-91
2023/06/29 03:40:13;;;;;;;0.80;0.65;;;16.40;82.20;;;;;;5052954;28;20652;-90
2023/06/29 03:42:47;;;;;;;1.50;0.60;;;16.30;82.40;;;;;;5036290;28;20204;-92
2023/06/29 03:45:18;;;;;;;1.17;0.60;;;16.30;82.90;;;;;;5045683;28;20200;-91
2023/06/29 03:47:50;;;;;;;0.55;0.50;;;16.10;83.40;;;;;;5052489;28;20220;-91
2023/06/29 03:50:24;;;;;;;0.47;0.45;;;16.10;81.20;;;;;;5051295;28;20196;-90
2023/06/29 03:52:56;;;;;;;0.60;0.60;;;15.90;77.60;;;;;;5080489;28;20238;-93
2023/06/29 03:55:31;;;;;;;1.17;0.75;;;16.00;78.40;;;;;;5065530;28;20200;-90
2023/06/29 03:58:04;;;;;;;0.68;0.52;;;16.10;78.70;;;;;;5049722;28;20213;-88
2023/06/29 04:00:35;;;;;;;1.40;0.55;;;16.10;79.20;;;;;;5039735;28;20208;-88
2023/06/29 04:03:06;;;;;;;1.60;0.80;;;16.20;80.10;;;;;;5056282;28;20204;-88
2023/06/29 04:05:37;;;;;;;1.60;0.52;;;16.20;79.80;;;;;;5058989;28;20670;-87
2023/06/29 04:08:10;;;;;;;1.73;1.27;;;16.10;81.30;;;;;;5078960;28;20227;-89
2023/06/29 04:10:41;;;;;;;2.05;1.05;;;16.10;82.80;;;;;;5077819;28;20680;-89
2023/06/29 04:13:14;;;;;;;1.15;0.90;;;16.20;82.80;;;;;;5055042;28;20208;-88
2023/06/29 04:15:46;;;;;;;0.43;0.40;;;16.20;84.60;;;;;;5058509;28;20200;-89
2023/06/29 04:18:18;;;;;;;0.93;0.70;;;16.20;80.60;;;;;;5057433;28;20784;-89
2023/06/29 04:20:53;;;;;;;0.40;0.40;;;16.20;83.60;;;;;;5059041;28;20678;-89
2023/06/29 04:23:25;;;;;;;0.95;0.60;;;16.30;83.40;;;;;;5059366;28;20259;-89
2023/06/29 04:25:56;;;;;;;0.40;0.40;;;16.10;85.10;;;;;;5059494;28;20207;-87
2023/06/29 04:28:31;;;;;;;0.60;0.40;;;16.10;82.80;;;;;;5059667;28;20572;-90
2023/06/29 04:31:03;;;;;;;0.60;0.50;;;16.10;80.00;;;;;;5053621;28;20648;-89
2023/06/29 04:33:38;;;;;;;0.60;0.57;;;16.00;79.20;;;;;;5061545;28;20201;-90
2023/06/29 04:36:13;;;;;;;0.65;0.40;;;16.00;81.20;;;;;;5048149;28;20664;-91
2023/06/29 04:38:50;;;;;;;0.77;0.50;;;16.10;82.00;;;;;;5040192;28;20294;-91
2023/06/29 04:41:30;;;;;;;0.70;0.45;;;16.20;84.30;;;;;;5039389;28;20200;-90
2023/06/29 04:44:08;;;;;;;1.23;0.50;;;16.20;81.20;;;;;;5040546;28;20197;-90
2023/06/29 04:46:42;;;;;;;2.08;0.43;;;16.10;79.40;;;;;;5059196;28;20600;-91
2023/06/29 04:49:14;;;;;;;0.77;0.50;;;16.10;80.00;;;;;;5057764;28;20212;-91
2023/06/29 04:51:46;;;;;;;0.85;0.47;;;16.10;79.60;;;;;;5039280;28;20228;-90
2023/06/29 04:54:18;;;;;;;0.63;0.30;;;16.20;78.80;;;;;;5058535;28;20210;-91
2023/06/29 04:56:50;;;;;;;0.77;0.47;;;16.20;80.80;;;;;;5055725;28;20205;-89
2023/06/29 04:59:27;;;;;;;3.08;1.05;;;16.20;79.50;;;;;;5051827;28;20559;-90
2023/06/29 05:01:59;;;;;;;0.98;0.70;;;16.10;79.80;;;;;;5056320;28;20200;-90
2023/06/29 05:04:30;;;;;;;0.60;0.60;;;16.20;80.50;;;;;;5044292;28;20215;-90
2023/06/29 05:07:03;;;;;;;0.73;0.40;;;16.10;81.00;;;;;;5049397;28;20231;-91
2023/06/29 05:09:36;;;;;;;2.15;0.80;;;16.20;81.10;;;;;;5065582;28;20208;-90
2023/06/29 05:12:08;;;;;;;1.63;0.57;;;16.10;80.10;;;;;;5039573;28;20256;-90
2023/06/29 05:14:44;;;;;;;0.82;0.55;;;16.20;80.20;;;;;;5036843;28;20194;-90
2023/06/29 05:17:18;;;;;;;0.73;0.47;;;16.20;80.20;;;;;;5048740;28;20203;-90
2023/06/29 05:19:49;;;;;;;2.25;0.40;;;16.20;79.60;;;;;;5056803;28;20211;-90
2023/06/29 05:22:22;;;;;;;0.80;0.50;;;16.20;80.40;;;;;;5037167;28;20240;-92
2023/06/29 05:24:55;;;;;;;0.70;0.50;;;16.20;80.90;;;;;;5018896;28;20205;-92
2023/06/29 05:27:29;;;;;;;0.50;0.40;;;16.20;80.20;;;;;;5050735;28;20629;-90
2023/06/29 05:30:02;;;;;;;2.33;0.75;;;16.20;80.40;;;;;;5057316;28;20204;-89
2023/06/29 05:32:34;;;;;;;1.00;0.50;;;16.20;81.40;;;;;;5056984;28;20208;-90
2023/06/29 05:35:07;;;;;;;2.00;0.70;;;16.10;80.40;;;;;;5039405;28;20200;-91
2023/06/29 05:37:40;;;;;;;2.38;0.52;;;16.00;82.10;;;;;;5050818;28;20282;-90
2023/06/29 05:40:12;;;;;;;0.77;0.40;;;15.90;80.60;;;;;;5041665;28;20201;-91
2023/06/29 05:45:31;;;;;;;3.50;0.60;;;16.10;80.60;;;;;;5031557;28;20227;-90
2023/06/29 05:48:07;;;;;;;1.20;0.88;;;16.10;80.50;;;;;;5073163;28;20220;-91
2023/06/29 05:50:39;;;;;;;0.82;0.40;;;15.90;81.00;;;;;;5070691;28;20197;-91
2023/06/29 05:53:14;;;;;;;0.60;0.40;;;16.00;80.90;;;;;;5072766;28;20322;-89
2023/06/29 05:55:47;;;;;;;3.63;0.50;;;16.00;79.30;;;;;;5044266;28;20208;-90
2023/06/29 05:58:19;;;;;;;0.40;0.30;;;16.00;80.10;;;;;;5045276;28;20221;-91
2023/06/29 06:00:54;;;;;;;2.17;0.60;;;16.00;81.50;;;;;;5056028;28;20591;-92
2023/06/29 06:03:29;;;;;;;2.17;1.00;;;16.10;80.50;;;;;;5048219;28;20230;-91
2023/06/29 06:06:05;;;;;;;0.63;0.50;;;16.10;80.70;;;;;;5057305;28;20215;-92
2023/06/29 06:08:37;;;;;;;1.27;0.63;;;16.10;79.90;;;;;;5056251;28;20216;-91
2023/06/29 06:11:12;;;;;;;1.20;0.70;;;16.10;80.60;;;;;;5072578;28;20177;-91
2023/06/29 06:13:46;;;;;;;1.45;0.60;;;16.10;81.30;;;;;;5077334;28;20203;-92
2023/06/29 06:16:24;;;;;;;2.42;0.30;;;16.20;80.50;;;;;;5077187;28;20208;-90
2023/06/29 06:18:56;;;;;;;1.27;0.70;;;16.00;78.50;;;;;;5058882;28;20254;-91
2023/06/29 06:21:28;;;;;;;1.52;0.52;;;15.90;80.20;;;;;;5063489;28;20197;-89
2023/06/29 06:24:00;;;;;;;2.40;0.40;;;15.80;79.00;;;;;;5056847;28;20196;-91
2023/06/29 06:26:35;;;;;;;0.82;0.35;;;15.80;78.80;;;;;;5038659;28;20215;-91
2023/06/29 06:29:08;;;;;;;1.40;0.50;;;15.60;78.40;;;;;;5055688;28;20212;-90
2023/06/29 06:31:42;;;;;;;1.38;0.50;;;15.50;78.70;;;;;;5040361;28;20211;-93
2023/06/29 06:34:15;;;;;;;1.02;0.60;;;15.50;79.10;;;;;;5041484;28;20200;-92
2023/06/29 06:36:46;;;;;;;1.85;0.70;;;15.30;78.20;;;;;;5037240;28;20201;-91
2023/06/29 06:39:18;;;;;;;0.65;0.52;;;15.20;79.20;;;;;;5048956;28;20679;-92
2023/06/29 06:41:54;;;;;;;1.15;0.50;;;15.10;79.80;;;;;;5054647;28;20220;-91
2023/06/29 06:44:26;;;;;;;0.68;0.40;;;15.10;80.20;;;;;;5054476;28;20196;-91
2023/06/29 06:47:04;;;;;;;2.80;1.00;;;15.10;80.20;;;;;;5053895;28;20231;-91
2023/06/29 06:49:40;;;;;;;2.60;0.65;;;15.00;80.10;;;;;;5053741;28;20196;-91
2023/06/29 06:52:13;;;;;;;3.22;1.40;;;15.00;80.10;;;;;;5035587;28;20264;-91
2023/06/29 06:54:48;;;;;;;1.35;0.60;;;14.90;80.20;;;;;;5016495;28;20209;-92
2023/06/29 06:57:19;;;;;;;0.40;0.40;;;14.80;80.50;;;;;;5033400;28;20211;-91
2023/06/29 06:59:54;;;;;;;1.98;0.80;;;14.80;81.20;;;;;;5034667;28;20395;-92
2023/06/29 07:02:31;;;;;;;1.40;0.82;;;14.80;81.60;;;;;;5040329;28;20283;-91
2023/06/29 07:05:04;;;;;;;2.67;0.80;;;14.70;81.60;;;;;;5046551;28;20206;-92
2023/06/29 07:07:36;;;;;;;1.63;0.90;;;14.60;81.70;;;;;;5048851;28;20224;-91
2023/06/29 07:10:07;;;;;;;2.47;0.98;;;14.50;82.10;;;;;;5056768;28;20296;-91
2023/06/29 07:12:40;;;;;;;1.55;0.88;;;14.60;82.40;;;;;;5037947;28;20200;-92
2023/06/29 07:18:05;;;;;;;2.85;1.92;;;14.50;83.60;;;;;;5057361;28;20184;-92
2023/06/29 07:20:39;;;;;;;2.30;1.40;;;14.40;83.90;;;;;;5042234;28;20695;-92
2023/06/29 07:23:11;;;;;;;2.70;1.58;;;14.40;85.20;;;;;;5036613;28;20212;-91
2023/06/29 07:25:42;;;;;;;2.88;1.67;;;14.40;85.60;;;;;;5045651;28;20189;-92
2023/06/29 07:28:14;;;;;;;3.10;1.65;;;14.40;85.60;;;;;;5059328;28;20235;-91
2023/06/29 07:30:47;;;;;;;3.75;2.28;;;14.40;85.10;;;;;;5030297;28;20223;-92
2023/06/29 07:33:23;;;;;;;2.17;1.30;;;14.40;85.10;;;;;;5064923;28;20185;-91
2023/06/29 07:35:58;;;;;;;2.08;1.30;;;14.30;85.30;;;;;;5045976;28;20193;-92
2023/06/29 07:38:31;;;;;;;2.65;1.40;;;14.30;86.00;;;;;;5057342;28;20201;-92
2023/06/29 07:41:03;;;;;;;2.55;1.58;;;14.20;86.00;;;;;;5054696;28;20200;-93
2023/06/29 07:43:36;;;;;;;3.85;1.80;;;14.10;87.00;;;;;;5065457;28;20284;-93
2023/06/29 07:49:06;;;;;;;3.08;1.92;;;14.10;87.80;;;;;;5056438;28;20220;-92
2023/06/29 07:51:42;;;;;;;3.00;1.40;;;14.20;88.50;;;;;;5048867;28;20259;-93
2023/06/29 07:54:14;;;;;;;2.10;1.40;;;14.10;88.40;;;;;;5042276;28;20196;-93
2023/06/29 07:56:53;;;;;;;2.13;1.55;;;14.00;89.20;;;;;;5059478;28;20659;-94
2023/06/29 07:59:25;;;;;;;3.15;1.60;;;14.00;89.50;;;;;;5040802;28;20213;-91
2023/06/29 08:01:59;;;;;;;3.50;1.40;;;14.00;89.30;;;;;;5036008;28;20641;-92
2023/06/29 08:04:35;;;;;;;3.85;1.60;;;13.90;90.10;;;;;;5035804;28;20201;-93
2023/06/29 08:07:08;;;;;;;4.18;1.80;;;13.90;90.60;;;;;;5041115;28;20275;-91
2023/06/29 08:09:40;;;;;;;3.72;1.60;;;13.90;91.20;;;;;;5017507;28;20233;-89
2023/06/29 08:12:20;;;;;;;4.32;1.45;;;13.80;91.50;;;;;;5035415;28;20219;-91
2023/06/29 08:14:52;;;;;;;2.95;1.20;;;13.80;91.90;;;;;;5050938;28;20205;-89
2023/06/29 08:17:25;;;;;;;2.30;1.42;;;13.70;91.60;;;;;;5053523;28;20215;-91
2023/06/29 08:19:59;;;;;;;4.78;1.33;;;13.70;91.80;;;;;;5053623;28;20227;-92
2023/06/29 08:22:33;;;;;;;3.80;1.45;;;13.60;92.10;;;;;;5032004;28;20192;-91
2023/06/29 08:25:04;;;;;;;4.13;1.90;;;13.70;92.40;;;;;;5053754;28;20547;-90
2023/06/29 08:27:35;;;;;;;3.88;1.58;;;13.60;92.60;;;;;;5053796;28;20200;-89
2023/06/29 08:30:10;;;;;;;4.28;2.08;;;13.50;93.40;;;;;;5067830;28;20231;-88
2023/06/29 08:32:42;;;;;;;2.92;1.30;;;13.50;93.50;;;;;;5071613;28;20182;-91
2023/06/29 08:35:17;;;;;;;4.68;1.52;;;13.40;93.90;;;;;;5061214;28;20679;-89
2023/06/29 08:37:49;;;;;;;2.92;1.70;;;13.50;94.10;;;;;;5042352;28;20227;-91
2023/06/29 08:40:25;;;;;;;3.85;1.77;;;13.40;94.80;;;;;;5019582;28;20194;-90
2023/06/29 08:42:57;;;;;;;2.97;1.27;;;13.30;94.90;;;;;;5020069;28;20200;-92
2023/06/29 08:45:30;;;;;;;4.18;1.70;;;13.40;94.10;;;;;;5038677;28;20213;-89
2023/06/29 08:48:03;;;;;;;5.05;2.63;;;13.30;94.40;;;;;;5037456;28;20221;-91
2023/06/29 08:50:39;;;;;;;3.40;2.25;;;13.20;94.80;;;;;;5037429;28;20204;-89
2023/06/29 08:53:12;;;;;;;3.55;1.77;;;13.10;95.20;;;;;;5045427;28;20239;-91
2023/06/29 08:55:46;;;;;;;4.07;1.77;;;13.10;95.20;;;;;;5057301;28;20570;-91
2023/06/29 08:58:20;;;;;;;3.13;1.90;;;13.10;95.30;;;;;;5038696;28;20232;-92
2023/06/29 09:00:51;;;;;;;10.75;4.65;;;13.10;95.10;;;;;;5056480;28;20230;-90
2023/06/29 09:03:25;;;;;;;5.68;3.65;;;13.10;95.10;;;;;;5036744;28;20238;-90
2023/06/29 09:05:59;;;;;;;8.35;4.82;;;13.00;95.30;;;;;;5048822;28;20247;-88
2023/06/29 09:08:34;;;;;;;6.82;4.68;;;13.00;95.60;;;;;;5057974;28;20230;-91
2023/06/29 09:11:05;;;;;;;5.75;2.50;;;13.00;95.40;;;;;;5065961;28;20206;-89
2023/06/29 09:13:36;;;;;;;2.88;1.83;;;13.00;96.00;;;;;;5069084;28;20205;-89
2023/06/29 09:16:09;;;;;;;5.63;2.58;;;12.90;96.50;;;;;;5038880;28;20246;-91
2023/06/29 09:18:44;;;;;;;2.90;2.10;;;13.00;97.10;;;;;;5038272;28;20204;-91
2023/06/29 09:21:21;;;;;;;3.25;2.10;;;13.00;97.40;;;;;;5038863;28;20195;-89
2023/06/29 09:23:55;;;;;;;5.57;2.67;;;13.00;96.40;;;;;;5057688;28;20212;-91
2023/06/29 09:26:29;;;;;;;7.95;3.15;;;12.90;97.00;;;;;;5036609;28;20215;-89
2023/06/29 09:29:04;;;;;;;8.25;2.50;;;12.80;97.40;;;;;;5031704;28;20273;-90
2023/06/29 09:31:36;;;;;;;3.47;2.00;;;12.80;97.70;;;;;;5056045;28;20566;-91
2023/06/29 09:34:25;;;;;;;6.40;2.88;;;12.80;98.10;;;;;;5038055;28;20232;-90
2023/06/29 09:37:03;;;;;;;5.50;3.33;;;12.80;96.80;;;;;;5047708;28;20201;-88
2023/06/29 09:39:38;;;;;;;4.55;2.70;;;12.70;97.30;;;;;;5055209;28;20211;-89
2023/06/29 09:42:12;;;;;;;6.75;3.45;;;12.60;96.90;;;;;;5054730;28;20650;-89
2023/06/29 09:44:48;;;;;;;4.97;2.00;;;12.60;97.20;;;;;;5054669;28;20200;-89
2023/06/29 09:47:23;;;;;;;3.95;1.92;;;12.70;96.90;;;;;;5054524;28;20193;-88
2023/06/29 09:49:55;;;;;;;3.38;1.90;;;12.60;97.40;;;;;;5055734;28;20234;-88
2023/06/29 09:52:33;;;;;;;3.55;1.63;;;12.70;97.30;;;;;;5056376;28;20250;-89
2023/06/29 09:55:06;;;;;;;3.25;2.00;;;12.60;98.00;;;;;;5043637;28;20173;-89
2023/06/29 09:57:39;;;;;;;3.15;1.77;;;12.60;98.00;;;;;;5058225;28;20260;-90
2023/06/29 10:00:12;;;;;;;4.07;1.80;;;12.50;97.50;;;;;;5037424;28;20217;-90
2023/06/29 10:02:47;;;;;;;10.38;7.35;;;12.50;97.50;;;;;;5039331;28;20194;-88
2023/06/29 10:05:18;;;;;;;5.00;3.17;;;12.40;97.40;;;;;;5065690;28;20207;-90
2023/06/29 10:07:53;;;;;;;4.03;2.63;;;12.30;97.90;;;;;;5078546;28;20638;-90
2023/06/29 10:10:27;;;;;;;3.20;2.30;;;12.30;97.90;;;;;;5097935;28;20186;-90
2023/06/29 10:13:01;;;;;;;4.00;2.40;;;12.30;97.80;;;;;;5098672;28;20219;-87
2023/06/29 10:15:35;;;;;;;5.82;2.45;;;12.20;97.90;;;;;;5085718;28;20197;-89
2023/06/29 10:18:13;;;;;;;4.03;2.45;;;12.10;98.00;;;;;;5054041;28;20189;-89
2023/06/29 10:20:46;;;;;;;4.32;2.47;;;12.10;97.60;;;;;;5075702;28;20204;-90
2023/06/29 10:23:23;;;;;;;3.20;2.20;;;12.10;97.90;;;;;;5082689;28;20204;-89
2023/06/29 10:25:58;;;;;;;2.28;1.52;;;12.10;98.10;;;;;;5080519;28;20202;-90
2023/06/29 10:28:29;;;;;;;2.10;1.45;;;12.10;98.70;;;;;;5072367;28;20240;-90
2023/06/29 10:31:06;;;;;;;4.03;1.95;;;12.10;98.30;;;;;;5056965;28;20258;-88
2023/06/29 10:33:51;;;;;;;3.70;1.67;;;12.10;97.50;;;;;;5043065;28;20236;-89
2023/06/29 10:36:25;;;;;;;1.85;1.52;;;12.00;97.80;;;;;;5063112;28;20930;-89
2023/06/29 10:38:59;;;;;;;2.25;1.60;;;12.10;97.80;;;;;;5077378;28;20274;-90
2023/06/29 10:41:32;;;;;;;2.80;1.55;;;12.10;97.90;;;;;;5059141;28;20675;-90
2023/06/29 10:44:08;;;;;;;2.70;1.48;;;12.00;97.90;;;;;;5053768;28;20213;-88
2023/06/29 10:46:50;;;;;;;3.75;1.90;;;12.00;97.90;;;;;;5055264;28;20564;-90
2023/06/29 10:49:30;;;;;;;6.28;3.28;;;11.90;98.30;;;;;;5054804;28;20611;-90
2023/06/29 10:52:07;;;;;;;6.30;3.30;;;11.90;98.30;;;;;;5055760;28;20250;-90
2023/06/29 10:54:43;;;;;;;5.75;1.73;;;11.90;98.80;;;;;;5052040;28;20196;-89
2023/06/29 10:57:32;;;;;;;3.42;2.10;;;11.90;98.40;;;;;;5053428;28;20318;-88
2023/06/29 11:00:06;;;;;;;2.90;1.92;;;11.80;98.40;;;;;;5039317;28;20198;-91
2023/06/29 11:02:40;;;;;;;3.65;1.70;;;11.80;98.80;;;;;;5055676;28;20243;-90
2023/06/29 11:05:18;;;;;;;3.17;1.42;;;11.80;99.20;;;;;;5053534;28;20209;-89
2023/06/29 11:07:54;;;;;;;2.47;1.33;;;11.80;99.00;;;;;;5055869;28;20254;-90
2023/06/29 11:10:28;;;;;;;2.10;1.55;;;11.80;99.00;;;;;;5058987;28;20274;-89
2023/06/29 11:13:00;;;;;;;1.75;1.00;;;11.80;99.20;;;;;;5070478;28;20231;-87
2023/06/29 11:15:33;;;;;;;3.22;1.33;;;11.70;99.60;;;;;;5071410;28;20200;-90
2023/06/29 11:18:07;;;;;;;2.92;1.10;;;11.80;98.80;;;;;;5075571;28;20306;-91
2023/06/29 11:20:39;;;;;;;3.58;1.30;;;11.80;98.80;;;;;;5060400;28;20224;-91
2023/06/29 11:23:13;;;;;;;4.88;1.00;;;11.80;98.70;;;;;;5054971;28;20201;-89
2023/06/29 11:25:51;;;;;;;1.92;1.02;;;11.70;98.90;;;;;;5056000;28;20660;-89
2023/06/29 11:28:24;;;;;;;3.00;1.40;;;11.70;99.40;;;;;;5033720;28;20659;-90
2023/06/29 11:30:56;;;;;;;2.65;1.42;;;11.70;99.40;;;;;;5055987;28;20201;-91
2023/06/29 11:33:30;;;;;;;2.53;1.40;;;11.80;99.40;;;;;;5056223;28;20267;-90
2023/06/29 11:36:05;;;;;;;3.45;1.30;;;11.80;99.40;;;;;;5038947;28;20204;-91
2023/06/29 11:38:38;;;;;;;2.92;1.27;;;11.80;99.70;;;;;;5057553;28;20204;-92
2023/06/29 11:41:14;;;;;;;3.28;1.50;;;11.80;99.80;;;;;;5050606;28;20284;-91
2023/06/29 11:43:48;;;;;;;3.20;1.42;;;11.90;99.90;;;;;;5035696;28;20201;-91
2023/06/29 11:46:27;;;;;;;3.35;1.40;;;11.80;99.90;;;;;;5031648;28;20209;-91
2023/06/29 11:49:05;;;;;;;3.53;1.42;;;11.90;99.90;;;;;;5054846;28;20228;-90
2023/06/29 11:51:55;;;;;;;3.85;1.80;;;11.70;99.90;;;;;;5068858;28;20220;-90
2023/06/29 11:54:39;;;;;;;2.15;1.60;;;11.70;99.90;;;;;;5061750;28;20207;-90
2023/06/29 11:57:26;;;;;;;2.28;1.30;;;11.70;99.90;;;;;;5064533;28;20204;-92
2023/06/29 12:00:05;;;;;;;3.17;1.33;;;11.70;99.90;;;;;;5040898;28;20207;-89
2023/06/29 12:02:38;;;;;;;3.60;1.50;;;11.70;99.90;;;;;;5048085;28;20669;-89
2023/06/29 12:05:15;;;;;;;2.63;1.58;;;11.70;99.90;;;;;;5056643;28;20700;-89
2023/06/29 12:10:34;;;;;;;2.53;1.30;;;11.70;99.90;;;;;;5057147;28;20810;-90
2023/06/29 12:13:21;;;;;;;3.80;1.38;;;11.70;99.90;;;;;;5065476;28;20202;-89
2023/06/29 12:16:01;;;;;;;3.03;1.23;;;11.70;99.90;;;;;;5049199;28;20207;-88
2023/06/29 12:18:45;;;;;;;2.15;1.20;;;11.70;99.90;;;;;;5063287;28;20248;-88
2023/06/29 12:21:33;;;;;;;2.78;1.20;;;11.80;99.90;;;;;;5062091;28;20218;-88
2023/06/29 12:26:53;;;;;;;3.45;1.20;;;11.70;99.90;;;;;;5049797;28;20494;-88
2023/06/29 12:29:42;;;;;;;1.90;1.20;;;11.80;99.90;;;;;;5062483;28;20224;-89
2023/06/29 12:32:17;;;;;;;2.17;1.42;;;11.80;99.90;;;;;;5047200;28;20205;-89
2023/06/29 12:34:56;;;;;;;3.22;1.50;;;11.90;99.90;;;;;;5051925;28;20257;-89
2023/06/29 12:37:34;;;;;;;1.38;1.27;;;11.90;99.90;;;;;;5042300;28;20212;-89
2023/06/29 12:40:31;;;;;;;2.88;1.45;;;11.90;99.90;;;;;;5033512;28;20714;-88
2023/06/29 12:43:08;;;;;;;2.92;1.25;;;11.80;99.90;;;;;;5036666;28;20173;-89
2023/06/29 12:45:47;;;;;;;3.10;1.30;;;11.80;99.90;;;;;;5053495;28;20192;-88
2023/06/29 12:48:23;;;;;;;3.35;1.30;;;11.80;99.90;;;;;;5065760;28;20236;-88
2023/06/29 12:50:59;;;;;;;3.97;1.77;;;11.70;99.90;;;;;;5043399;28;20656;-90
2023/06/29 12:53:38;;;;;;;3.20;1.50;;;11.70;99.90;;;;;;5055835;28;20199;-89
2023/06/29 12:56:18;;;;;;;1.52;1.15;;;11.60;99.90;;;;;;5058152;28;20210;-89
2023/06/29 12:59:02;;;;;;;3.25;1.30;;;11.60;99.90;;;;;;5066081;28;20201;-88
2023/06/29 13:04:34;;;;;;;1.83;1.30;;;11.60;99.90;;;;;;5048605;28;20252;-88
2023/06/29 13:07:09;;;;;;;4.22;1.50;;;11.70;99.90;;;;;;5049718;28;20220;-89
2023/06/29 13:09:52;;;;;;;2.53;1.60;;;11.60;99.90;;;;;;5067197;28;20220;-90
2023/06/29 13:12:28;;;;;;;2.72;1.55;;;11.60;99.90;;;;;;5066332;28;20189;-90
2023/06/29 13:15:03;;;;;;;2.67;1.58;;;11.50;99.90;;;;;;5057265;28;20220;-89
2023/06/29 13:17:55;;;;;;;2.40;1.40;;;11.30;99.90;;;;;;5045782;28;20196;-89
2023/06/29 13:20:35;;;;;;;2.45;1.50;;;11.20;99.90;;;;;;5064591;28;20717;-92
2023/06/29 13:23:15;;;;;;;1.60;1.20;;;11.20;99.90;;;;;;5067959;28;20204;-90
2023/06/29 13:25:49;;;;;;;2.13;1.42;;;11.20;99.90;;;;;;5050056;28;20201;-90
2023/06/29 13:28:23;;;;;;;1.73;1.30;;;11.10;99.90;;;;;;5054360;28;20383;-92
2023/06/29 13:31:06;;;;;;;2.58;1.40;;;11.00;99.90;;;;;;5062134;28;20232;-90
2023/06/29 13:33:55;;;;;;;2.38;1.25;;;11.00;99.90;;;;;;5033811;28;20227;-91
2023/06/29 13:36:31;;;;;;;1.48;1.10;;;11.00;99.90;;;;;;5043897;28;20256;-91
2023/06/29 13:39:21;;;;;;;2.03;1.27;;;11.00;99.90;;;;;;5042014;28;20222;-92
2023/06/29 13:42:04;;;;;;;3.47;1.10;;;10.90;99.90;;;;;;5041104;28;20200;-90